Brownsville, TN

12:05 PM CDT en Octubre 31, 2014 (GMT -0500)
Crossroads Community | Change Station
CLOSE
Current Station
Estación meteorológica personal
Location: Bells, TN
Altura: 367 ft
Estaciones meteorológicas cercanas

Alt 367 ft 35.74 °N, 89.12 °W | Updated 13 minutes ago

Nublado
Nublado
54.3 ° F
Sensación térmica 54.3 ° F
N
8.3
Viento Variable Viento desde NO

Hoy
Alta -- | Baja -- ° F
--% Posibilidad de precipitaciones
Ayer
Alta -- | Baja -- ° F
Precip. -- pul
7:18 AM 6:02 PM
Cuarto creciente, 57% visible
Presión 30.10 pul
Visibilidad 10.0 Millas
Nubes Nublado 2200 ft
Punto de rocío 47 ° F
Humedad 77%
Precipitaciones 0.00 pul
Espesor de la nieve No disponible.
UV 1 de una escala de 12
Polen .90 de una escala de 12
Calidad del aire No disponible.
Flu Activity No disponible.
METAR KMKL 311653Z 36013KT 10SM OVC022 12/08 A3010 RMK AO2 SLP193 T01220078

More Conditions Fewer Conditions

Presión 30.10 pul
Visibilidad 10.0 Millas
Nubes Nublado 2200 ft
Punto de rocío 47 ° F
Humedad 77%
Precipitaciones 0.00 pul
Espesor de la nieve No disponible.
UV 1 de una escala de 12
Polen .90 de una escala de 12
Calidad del aire No disponible.
Flu Activity No disponible.
METAR KMKL 311653Z 36013KT 10SM OVC022 12/08 A3010 RMK AO2 SLP193 T01220078

More Conditions Fewer Conditions

10-Day Weather Forecast

Almanac

Astronomía

Oct. 31, 2014 Salida Puesta
Hora real
Crepúsculo civil
Crepúsculo náutico
Crepúsculo astronómico
Luna
Horas de luz
Horas de luz
Tomorrow will be .
, % of the Moon is Illuminated

Extremos de hoy

Máximos del estado Bajos del estado

Community

WunderPhotos

Upload Photos

1,766,660 ¡fotos cargadas!

WunderBlogs® & News

Nearby

Calidad del aire

  Calidad del aire Índice AQ Contaminante
Not available.

Grosos de nieve

Estación Profundido Altura

Actividad de terremotos

Ciudad Distance Mag. Tiempo y dato
Magnitud mínima muestra es 2,5.

Temperaturas de aguas costeras

Lugar Temperatura

Estaciones meteorológicas cercanas